sensor_id;sensor_type;location;lat;lon;timestamp;P1;durP1;ratioP1;P2;durP2;ratioP2
12367;SDS011;6248;49.812;6.620;2023-06-24T00:02:17;2.90;;;2.70;;
12367;SDS011;6248;49.812;6.620;2023-06-24T00:04:47;3.03;;;2.83;;
12367;SDS011;6248;49.812;6.620;2023-06-24T00:07:14;3.03;;;2.83;;
12367;SDS011;6248;49.812;6.620;2023-06-24T00:09:41;2.63;;;2.53;;
12367;SDS011;6248;49.812;6.620;2023-06-24T00:12:08;2.85;;;2.65;;
12367;SDS011;6248;49.812;6.620;2023-06-24T00:14:35;2.80;;;2.60;;
12367;SDS011;6248;49.812;6.620;2023-06-24T00:17:04;3.22;;;2.97;;
12367;SDS011;6248;49.812;6.620;2023-06-24T00:19:32;3.20;;;2.90;;
12367;SDS011;6248;49.812;6.620;2023-06-24T00:22:00;3.20;;;2.90;;
12367;SDS011;6248;49.812;6.620;2023-06-24T00:24:28;3.53;;;3.22;;
12367;SDS011;6248;49.812;6.620;2023-06-24T00:26:56;3.10;;;2.90;;
12367;SDS011;6248;49.812;6.620;2023-06-24T00:29:23;3.40;;;2.92;;
12367;SDS011;6248;49.812;6.620;2023-06-24T00:31:50;3.10;;;2.90;;
12367;SDS011;6248;49.812;6.620;2023-06-24T00:34:17;3.22;;;3.03;;
12367;SDS011;6248;49.812;6.620;2023-06-24T00:36:45;3.40;;;3.20;;
12367;SDS011;6248;49.812;6.620;2023-06-24T00:39:14;3.38;;;3.08;;
12367;SDS011;6248;49.812;6.620;2023-06-24T00:41:41;3.22;;;2.92;;
12367;SDS011;6248;49.812;6.620;2023-06-24T00:44:09;3.75;;;3.30;;
12367;SDS011;6248;49.812;6.620;2023-06-24T00:46:36;3.60;;;3.30;;
12367;SDS011;6248;49.812;6.620;2023-06-24T00:49:05;3.10;;;2.90;;
12367;SDS011;6248;49.812;6.620;2023-06-24T00:51:32;3.38;;;3.08;;
12367;SDS011;6248;49.812;6.620;2023-06-24T00:54:01;3.25;;;3.03;;
12367;SDS011;6248;49.812;6.620;2023-06-24T00:56:31;3.38;;;3.17;;
12367;SDS011;6248;49.812;6.620;2023-06-24T00:58:58;3.28;;;3.05;;
12367;SDS011;6248;49.812;6.620;2023-06-24T01:01:26;3.30;;;3.00;;
12367;SDS011;6248;49.812;6.620;2023-06-24T01:03:57;3.30;;;3.10;;
12367;SDS011;6248;49.812;6.620;2023-06-24T01:06:24;3.97;;;3.25;;
12367;SDS011;6248;49.812;6.620;2023-06-24T01:08:54;4.28;;;3.20;;
12367;SDS011;6248;49.812;6.620;2023-06-24T01:11:21;3.50;;;3.20;;
12367;SDS011;6248;49.812;6.620;2023-06-24T01:13:50;3.75;;;3.30;;
12367;SDS011;6248;49.812;6.620;2023-06-24T01:16:19;3.22;;;3.00;;
12367;SDS011;6248;49.812;6.620;2023-06-24T01:18:51;3.50;;;3.20;;
12367;SDS011;6248;49.812;6.620;2023-06-24T01:21:21;3.50;;;3.08;;
12367;SDS011;6248;49.812;6.620;2023-06-24T01:24:00;3.35;;;3.05;;
12367;SDS011;6248;49.812;6.620;2023-06-24T01:26:33;3.40;;;3.10;;
12367;SDS011;6248;49.812;6.620;2023-06-24T01:29:24;3.20;;;3.00;;
12367;SDS011;6248;49.812;6.620;2023-06-24T01:31:58;3.72;;;3.42;;
12367;SDS011;6248;49.812;6.620;2023-06-24T01:34:28;3.00;;;2.80;;
12367;SDS011;6248;49.812;6.620;2023-06-24T01:37:03;3.55;;;3.28;;
12367;SDS011;6248;49.812;6.620;2023-06-24T01:39:33;3.65;;;3.35;;
12367;SDS011;6248;49.812;6.620;2023-06-24T01:42:03;4.65;;;3.35;;
12367;SDS011;6248;49.812;6.620;2023-06-24T01:44:33;3.33;;;3.03;;
12367;SDS011;6248;49.812;6.620;2023-06-24T01:47:03;4.03;;;3.60;;
12367;SDS011;6248;49.812;6.620;2023-06-24T01:49:31;3.58;;;3.38;;
12367;SDS011;6248;49.812;6.620;2023-06-24T01:51:59;3.80;;;3.50;;
12367;SDS011;6248;49.812;6.620;2023-06-24T01:54:26;2.97;;;2.78;;
12367;SDS011;6248;49.812;6.620;2023-06-24T01:56:55;3.38;;;3.08;;
12367;SDS011;6248;49.812;6.620;2023-06-24T01:59:24;3.85;;;3.55;;
12367;SDS011;6248;49.812;6.620;2023-06-24T02:01:52;3.28;;;2.97;;
12367;SDS011;6248;49.812;6.620;2023-06-24T02:04:20;3.63;;;3.42;;
12367;SDS011;6248;49.812;6.620;2023-06-24T02:06:48;3.97;;;3.67;;
12367;SDS011;6248;49.812;6.620;2023-06-24T02:09:16;3.75;;;3.10;;
12367;SDS011;6248;49.812;6.620;2023-06-24T02:11:44;4.40;;;2.92;;
12367;SDS011;6248;49.812;6.620;2023-06-24T02:14:12;4.10;;;3.70;;
12367;SDS011;6248;49.812;6.620;2023-06-24T02:16:41;4.05;;;3.75;;
12367;SDS011;6248;49.812;6.620;2023-06-24T02:19:08;4.15;;;3.60;;
12367;SDS011;6248;49.812;6.620;2023-06-24T02:21:38;3.75;;;3.45;;
12367;SDS011;6248;49.812;6.620;2023-06-24T02:24:06;3.60;;;3.30;;
12367;SDS011;6248;49.812;6.620;2023-06-24T02:26:33;3.72;;;3.40;;
12367;SDS011;6248;49.812;6.620;2023-06-24T02:29:05;3.67;;;3.47;;
12367;SDS011;6248;49.812;6.620;2023-06-24T02:31:33;5.25;;;3.90;;
12367;SDS011;6248;49.812;6.620;2023-06-24T02:34:01;3.78;;;3.13;;
12367;SDS011;6248;49.812;6.620;2023-06-24T02:36:28;4.00;;;3.70;;
12367;SDS011;6248;49.812;6.620;2023-06-24T02:38:56;3.45;;;3.15;;
12367;SDS011;6248;49.812;6.620;2023-06-24T02:41:23;4.35;;;3.63;;
12367;SDS011;6248;49.812;6.620;2023-06-24T02:43:51;3.67;;;3.45;;
12367;SDS011;6248;49.812;6.620;2023-06-24T02:46:18;4.00;;;3.60;;
12367;SDS011;6248;49.812;6.620;2023-06-24T02:48:46;3.40;;;3.20;;
12367;SDS011;6248;49.812;6.620;2023-06-24T02:51:13;4.07;;;3.50;;
12367;SDS011;6248;49.812;6.620;2023-06-24T02:53:41;3.72;;;3.42;;
12367;SDS011;6248;49.812;6.620;2023-06-24T02:56:11;4.00;;;3.47;;
12367;SDS011;6248;49.812;6.620;2023-06-24T02:58:39;4.00;;;3.60;;
12367;SDS011;6248;49.812;6.620;2023-06-24T03:01:06;4.82;;;3.72;;
12367;SDS011;6248;49.812;6.620;2023-06-24T03:03:34;3.67;;;3.38;;
12367;SDS011;6248;49.812;6.620;2023-06-24T03:06:01;4.43;;;3.80;;
12367;SDS011;6248;49.812;6.620;2023-06-24T03:08:29;3.90;;;3.60;;
12367;SDS011;6248;49.812;6.620;2023-06-24T03:10:56;4.10;;;3.60;;
12367;SDS011;6248;49.812;6.620;2023-06-24T03:13:25;4.25;;;3.30;;
12367;SDS011;6248;49.812;6.620;2023-06-24T03:15:52;3.65;;;3.33;;
12367;SDS011;6248;49.812;6.620;2023-06-24T03:18:20;3.42;;;3.20;;
12367;SDS011;6248;49.812;6.620;2023-06-24T03:20:47;3.95;;;3.65;;
12367;SDS011;6248;49.812;6.620;2023-06-24T03:23:14;4.38;;;3.42;;
12367;SDS011;6248;49.812;6.620;2023-06-24T03:25:41;4.25;;;3.85;;
12367;SDS011;6248;49.812;6.620;2023-06-24T03:28:08;4.25;;;3.40;;
12367;SDS011;6248;49.812;6.620;2023-06-24T03:30:37;3.90;;;3.60;;
12367;SDS011;6248;49.812;6.620;2023-06-24T03:33:04;4.57;;;3.40;;
12367;SDS011;6248;49.812;6.620;2023-06-24T03:35:32;3.85;;;3.45;;
12367;SDS011;6248;49.812;6.620;2023-06-24T03:37:59;4.13;;;3.70;;
12367;SDS011;6248;49.812;6.620;2023-06-24T03:40:26;3.42;;;3.22;;
12367;SDS011;6248;49.812;6.620;2023-06-24T03:42:53;3.65;;;3.35;;
12367;SDS011;6248;49.812;6.620;2023-06-24T03:45:20;5.68;;;3.80;;
12367;SDS011;6248;49.812;6.620;2023-06-24T03:47:49;3.70;;;3.40;;
12367;SDS011;6248;49.812;6.620;2023-06-24T03:50:16;3.88;;;3.30;;
12367;SDS011;6248;49.812;6.620;2023-06-24T03:52:43;3.97;;;3.60;;
12367;SDS011;6248;49.812;6.620;2023-06-24T03:55:10;4.28;;;3.78;;
12367;SDS011;6248;49.812;6.620;2023-06-24T03:57:38;3.95;;;3.65;;
12367;SDS011;6248;49.812;6.620;2023-06-24T04:00:05;3.97;;;3.35;;
12367;SDS011;6248;49.812;6.620;2023-06-24T04:02:40;4.20;;;3.90;;
12367;SDS011;6248;49.812;6.620;2023-06-24T04:05:08;5.63;;;3.70;;
12367;SDS011;6248;49.812;6.620;2023-06-24T04:07:36;3.53;;;3.20;;
12367;SDS011;6248;49.812;6.620;2023-06-24T04:10:03;3.45;;;3.25;;
12367;SDS011;6248;49.812;6.620;2023-06-24T04:12:33;3.90;;;3.35;;
12367;SDS011;6248;49.812;6.620;2023-06-24T04:15:00;3.35;;;3.15;;
12367;SDS011;6248;49.812;6.620;2023-06-24T04:17:29;4.13;;;3.83;;
12367;SDS011;6248;49.812;6.620;2023-06-24T04:19:56;5.28;;;3.78;;
12367;SDS011;6248;49.812;6.620;2023-06-24T04:22:25;3.67;;;3.40;;
12367;SDS011;6248;49.812;6.620;2023-06-24T04:24:52;3.33;;;3.03;;
12367;SDS011;6248;49.812;6.620;2023-06-24T04:27:19;3.85;;;3.47;;
12367;SDS011;6248;49.812;6.620;2023-06-24T04:29:47;3.80;;;3.50;;
12367;SDS011;6248;49.812;6.620;2023-06-24T04:32:14;3.70;;;3.40;;
12367;SDS011;6248;49.812;6.620;2023-06-24T04:34:41;3.70;;;3.40;;
12367;SDS011;6248;49.812;6.620;2023-06-24T04:37:08;3.47;;;3.28;;
12367;SDS011;6248;49.812;6.620;2023-06-24T04:39:37;3.70;;;3.40;;
12367;SDS011;6248;49.812;6.620;2023-06-24T04:42:04;4.07;;;3.78;;
12367;SDS011;6248;49.812;6.620;2023-06-24T04:44:31;3.97;;;3.60;;
12367;SDS011;6248;49.812;6.620;2023-06-24T04:46:58;4.75;;;4.22;;
12367;SDS011;6248;49.812;6.620;2023-06-24T04:49:26;4.55;;;4.15;;
12367;SDS011;6248;49.812;6.620;2023-06-24T04:51:53;4.00;;;3.70;;
12367;SDS011;6248;49.812;6.620;2023-06-24T04:54:20;4.63;;;3.70;;
12367;SDS011;6248;49.812;6.620;2023-06-24T04:56:48;4.15;;;3.72;;
12367;SDS011;6248;49.812;6.620;2023-06-24T04:59:17;3.78;;;3.53;;
12367;SDS011;6248;49.812;6.620;2023-06-24T05:01:44;3.97;;;3.67;;
12367;SDS011;6248;49.812;6.620;2023-06-24T05:04:11;5.10;;;3.50;;
12367;SDS011;6248;49.812;6.620;2023-06-24T05:06:39;3.75;;;3.33;;
12367;SDS011;6248;49.812;6.620;2023-06-24T05:09:06;4.30;;;3.92;;
12367;SDS011;6248;49.812;6.620;2023-06-24T05:11:33;4.25;;;3.95;;
12367;SDS011;6248;49.812;6.620;2023-06-24T05:14:02;4.53;;;4.22;;
12367;SDS011;6248;49.812;6.620;2023-06-24T05:16:29;4.80;;;4.38;;
12367;SDS011;6248;49.812;6.620;2023-06-24T05:18:56;3.30;;;3.10;;
12367;SDS011;6248;49.812;6.620;2023-06-24T05:21:23;3.95;;;3.63;;
12367;SDS011;6248;49.812;6.620;2023-06-24T05:23:50;4.43;;;4.03;;
12367;SDS011;6248;49.812;6.620;2023-06-24T05:26:18;3.60;;;3.30;;
12367;SDS011;6248;49.812;6.620;2023-06-24T05:28:45;3.28;;;3.08;;
12367;SDS011;6248;49.812;6.620;2023-06-24T05:31:13;4.00;;;3.70;;
12367;SDS011;6248;49.812;6.620;2023-06-24T05:33:40;6.03;;;4.00;;
12367;SDS011;6248;49.812;6.620;2023-06-24T05:36:08;3.95;;;3.58;;
12367;SDS011;6248;49.812;6.620;2023-06-24T05:38:35;3.53;;;3.33;;
12367;SDS011;6248;49.812;6.620;2023-06-24T05:41:02;4.88;;;3.70;;
12367;SDS011;6248;49.812;6.620;2023-06-24T05:43:29;5.38;;;4.20;;
12367;SDS011;6248;49.812;6.620;2023-06-24T05:45:56;6.70;;;3.90;;
12367;SDS011;6248;49.812;6.620;2023-06-24T05:48:25;3.67;;;3.28;;
12367;SDS011;6248;49.812;6.620;2023-06-24T05:50:52;4.30;;;3.63;;
12367;SDS011;6248;49.812;6.620;2023-06-24T05:53:19;4.03;;;3.65;;
12367;SDS011;6248;49.812;6.620;2023-06-24T05:55:46;3.40;;;3.20;;
12367;SDS011;6248;49.812;6.620;2023-06-24T05:58:13;4.35;;;4.03;;
12367;SDS011;6248;49.812;6.620;2023-06-24T06:00:40;4.38;;;3.97;;
12367;SDS011;6248;49.812;6.620;2023-06-24T06:03:08;4.22;;;3.92;;
12367;SDS011;6248;49.812;6.620;2023-06-24T06:05:37;5.20;;;4.63;;
12367;SDS011;6248;49.812;6.620;2023-06-24T06:08:04;5.43;;;4.30;;
12367;SDS011;6248;49.812;6.620;2023-06-24T06:10:31;4.50;;;4.10;;
12367;SDS011;6248;49.812;6.620;2023-06-24T06:12:58;3.92;;;3.63;;
12367;SDS011;6248;49.812;6.620;2023-06-24T06:15:25;4.43;;;4.00;;
12367;SDS011;6248;49.812;6.620;2023-06-24T06:17:52;4.47;;;4.18;;
12367;SDS011;6248;49.812;6.620;2023-06-24T06:20:19;4.15;;;3.65;;
12367;SDS011;6248;49.812;6.620;2023-06-24T06:22:48;3.97;;;3.67;;
12367;SDS011;6248;49.812;6.620;2023-06-24T06:25:16;4.22;;;3.53;;
12367;SDS011;6248;49.812;6.620;2023-06-24T06:27:43;4.13;;;3.83;;
12367;SDS011;6248;49.812;6.620;2023-06-24T06:30:11;3.80;;;3.42;;
12367;SDS011;6248;49.812;6.620;2023-06-24T06:32:38;3.30;;;3.00;;
12367;SDS011;6248;49.812;6.620;2023-06-24T06:35:06;3.95;;;3.65;;
12367;SDS011;6248;49.812;6.620;2023-06-24T06:37:34;4.00;;;3.70;;
12367;SDS011;6248;49.812;6.620;2023-06-24T06:40:02;3.92;;;3.40;;
12367;SDS011;6248;49.812;6.620;2023-06-24T06:42:30;3.92;;;3.63;;
12367;SDS011;6248;49.812;6.620;2023-06-24T06:44:57;3.63;;;3.20;;
12367;SDS011;6248;49.812;6.620;2023-06-24T06:47:24;4.75;;;4.13;;
12367;SDS011;6248;49.812;6.620;2023-06-24T06:49:51;4.03;;;3.60;;
12367;SDS011;6248;49.812;6.620;2023-06-24T06:52:18;4.55;;;4.15;;
12367;SDS011;6248;49.812;6.620;2023-06-24T06:54:45;4.30;;;3.97;;
12367;SDS011;6248;49.812;6.620;2023-06-24T06:57:14;4.88;;;3.60;;
12367;SDS011;6248;49.812;6.620;2023-06-24T06:59:41;4.75;;;4.10;;
12367;SDS011;6248;49.812;6.620;2023-06-24T07:02:08;4.10;;;3.78;;
12367;SDS011;6248;49.812;6.620;2023-06-24T07:04:35;5.05;;;3.72;;
12367;SDS011;6248;49.812;6.620;2023-06-24T07:07:03;4.03;;;3.70;;
12367;SDS011;6248;49.812;6.620;2023-06-24T07:09:30;4.22;;;3.83;;
12367;SDS011;6248;49.812;6.620;2023-06-24T07:11:57;4.25;;;3.88;;
12367;SDS011;6248;49.812;6.620;2023-06-24T07:14:26;5.28;;;4.88;;
12367;SDS011;6248;49.812;6.620;2023-06-24T07:16:53;5.38;;;4.47;;
12367;SDS011;6248;49.812;6.620;2023-06-24T07:19:20;5.22;;;4.50;;
12367;SDS011;6248;49.812;6.620;2023-06-24T07:21:47;4.35;;;4.00;;
12367;SDS011;6248;49.812;6.620;2023-06-24T07:24:14;6.30;;;4.75;;
12367;SDS011;6248;49.812;6.620;2023-06-24T07:26:41;8.75;;;4.13;;
12367;SDS011;6248;49.812;6.620;2023-06-24T07:29:08;11.48;;;5.00;;
12367;SDS011;6248;49.812;6.620;2023-06-24T07:31:37;5.85;;;4.05;;
12367;SDS011;6248;49.812;6.620;2023-06-24T07:34:04;9.63;;;4.50;;
12367;SDS011;6248;49.812;6.620;2023-06-24T07:36:31;5.05;;;4.60;;
12367;SDS011;6248;49.812;6.620;2023-06-24T07:38:59;4.93;;;4.07;;
12367;SDS011;6248;49.812;6.620;2023-06-24T07:41:26;5.55;;;4.40;;
12367;SDS011;6248;49.812;6.620;2023-06-24T07:43:53;4.82;;;4.10;;
12367;SDS011;6248;49.812;6.620;2023-06-24T07:46:20;6.40;;;5.05;;
12367;SDS011;6248;49.812;6.620;2023-06-24T07:48:56;4.70;;;4.10;;
12367;SDS011;6248;49.812;6.620;2023-06-24T07:51:24;4.25;;;3.88;;
12367;SDS011;6248;49.812;6.620;2023-06-24T07:53:51;6.70;;;4.70;;
12367;SDS011;6248;49.812;6.620;2023-06-24T07:56:18;4.70;;;4.30;;
12367;SDS011;6248;49.812;6.620;2023-06-24T07:58:45;4.03;;;3.70;;
12367;SDS011;6248;49.812;6.620;2023-06-24T08:01:12;4.18;;;3.78;;
12367;SDS011;6248;49.812;6.620;2023-06-24T08:03:40;4.55;;;3.70;;
12367;SDS011;6248;49.812;6.620;2023-06-24T08:06:08;4.82;;;3.80;;
12367;SDS011;6248;49.812;6.620;2023-06-24T08:08:35;4.82;;;3.50;;
12367;SDS011;6248;49.812;6.620;2023-06-24T08:11:02;5.07;;;4.40;;
12367;SDS011;6248;49.812;6.620;2023-06-24T08:13:29;5.18;;;4.75;;
12367;SDS011;6248;49.812;6.620;2023-06-24T08:15:57;4.10;;;3.80;;
12367;SDS011;6248;49.812;6.620;2023-06-24T08:18:24;5.22;;;4.40;;
12367;SDS011;6248;49.812;6.620;2023-06-24T08:20:51;3.58;;;3.28;;
12367;SDS011;6248;49.812;6.620;2023-06-24T08:23:20;6.65;;;4.38;;
12367;SDS011;6248;49.812;6.620;2023-06-24T08:25:47;5.68;;;4.10;;
12367;SDS011;6248;49.812;6.620;2023-06-24T08:28:14;5.15;;;4.03;;
12367;SDS011;6248;49.812;6.620;2023-06-24T08:30:41;6.18;;;4.43;;
12367;SDS011;6248;49.812;6.620;2023-06-24T08:33:08;5.32;;;4.75;;
12367;SDS011;6248;49.812;6.620;2023-06-24T08:35:36;6.68;;;5.00;;
12367;SDS011;6248;49.812;6.620;2023-06-24T08:38:03;6.63;;;4.43;;
12367;SDS011;6248;49.812;6.620;2023-06-24T08:40:31;5.15;;;4.20;;
12367;SDS011;6248;49.812;6.620;2023-06-24T08:42:59;5.18;;;4.50;;
12367;SDS011;6248;49.812;6.620;2023-06-24T08:45:26;4.15;;;3.85;;
12367;SDS011;6248;49.812;6.620;2023-06-24T08:47:53;3.38;;;3.08;;
12367;SDS011;6248;49.812;6.620;2023-06-24T08:50:21;4.22;;;3.83;;
12367;SDS011;6248;49.812;6.620;2023-06-24T08:52:50;4.53;;;4.10;;
12367;SDS011;6248;49.812;6.620;2023-06-24T08:55:19;3.53;;;3.22;;
12367;SDS011;6248;49.812;6.620;2023-06-24T08:57:47;4.55;;;3.85;;
12367;SDS011;6248;49.812;6.620;2023-06-24T09:00:15;4.65;;;4.25;;
12367;SDS011;6248;49.812;6.620;2023-06-24T09:02:42;3.58;;;3.28;;
12367;SDS011;6248;49.812;6.620;2023-06-24T09:05:10;3.90;;;3.50;;
12367;SDS011;6248;49.812;6.620;2023-06-24T09:07:37;5.85;;;3.45;;
12367;SDS011;6248;49.812;6.620;2023-06-24T09:10:05;3.95;;;3.40;;
12367;SDS011;6248;49.812;6.620;2023-06-24T09:12:32;4.43;;;3.67;;
12367;SDS011;6248;49.812;6.620;2023-06-24T09:15:01;3.85;;;3.55;;
12367;SDS011;6248;49.812;6.620;2023-06-24T09:17:29;2.90;;;2.63;;
12367;SDS011;6248;49.812;6.620;2023-06-24T09:20:02;5.05;;;3.05;;
12367;SDS011;6248;49.812;6.620;2023-06-24T09:22:30;4.72;;;3.50;;
12367;SDS011;6248;49.812;6.620;2023-06-24T09:24:57;3.80;;;3.00;;
12367;SDS011;6248;49.812;6.620;2023-06-24T09:27:30;3.75;;;3.30;;
12367;SDS011;6248;49.812;6.620;2023-06-24T09:29:57;4.68;;;3.63;;
12367;SDS011;6248;49.812;6.620;2023-06-24T09:32:27;2.63;;;2.40;;
12367;SDS011;6248;49.812;6.620;2023-06-24T09:34:56;2.60;;;2.40;;
12367;SDS011;6248;49.812;6.620;2023-06-24T09:37:24;2.60;;;2.40;;
12367;SDS011;6248;49.812;6.620;2023-06-24T09:39:55;3.35;;;3.05;;
12367;SDS011;6248;49.812;6.620;2023-06-24T09:42:23;3.00;;;2.80;;
12367;SDS011;6248;49.812;6.620;2023-06-24T09:44:53;3.50;;;3.20;;
12367;SDS011;6248;49.812;6.620;2023-06-24T09:47:20;3.65;;;3.10;;
12367;SDS011;6248;49.812;6.620;2023-06-24T09:49:51;4.95;;;3.30;;
12367;SDS011;6248;49.812;6.620;2023-06-24T09:52:18;3.28;;;2.97;;
12367;SDS011;6248;49.812;6.620;2023-06-24T09:54:47;3.30;;;3.00;;
12367;SDS011;6248;49.812;6.620;2023-06-24T09:57:17;4.15;;;2.85;;
12367;SDS011;6248;49.812;6.620;2023-06-24T09:59:45;6.30;;;3.30;;
12367;SDS011;6248;49.812;6.620;2023-06-24T10:02:12;6.07;;;3.30;;
12367;SDS011;6248;49.812;6.620;2023-06-24T10:04:41;3.78;;;3.30;;
12367;SDS011;6248;49.812;6.620;2023-06-24T10:07:10;4.05;;;3.42;;
12367;SDS011;6248;49.812;6.620;2023-06-24T10:09:38;3.20;;;2.90;;
12367;SDS011;6248;49.812;6.620;2023-06-24T10:12:05;3.47;;;3.20;;
12367;SDS011;6248;49.812;6.620;2023-06-24T10:14:32;3.05;;;2.85;;
12367;SDS011;6248;49.812;6.620;2023-06-24T10:17:00;2.90;;;2.70;;
12367;SDS011;6248;49.812;6.620;2023-06-24T10:19:28;3.88;;;3.08;;
12367;SDS011;6248;49.812;6.620;2023-06-24T10:21:57;3.30;;;3.00;;
12367;SDS011;6248;49.812;6.620;2023-06-24T10:24:29;2.95;;;2.72;;
12367;SDS011;6248;49.812;6.620;2023-06-24T10:27:03;4.95;;;3.40;;
12367;SDS011;6248;49.812;6.620;2023-06-24T10:29:30;3.67;;;3.38;;
12367;SDS011;6248;49.812;6.620;2023-06-24T10:32:03;3.60;;;3.40;;
12367;SDS011;6248;49.812;6.620;2023-06-24T10:34:32;5.00;;;3.45;;
12367;SDS011;6248;49.812;6.620;2023-06-24T10:37:00;4.63;;;3.22;;
12367;SDS011;6248;49.812;6.620;2023-06-24T10:39:38;3.22;;;2.92;;
12367;SDS011;6248;49.812;6.620;2023-06-24T10:44:52;4.43;;;3.22;;
12367;SDS011;6248;49.812;6.620;2023-06-24T10:47:21;5.13;;;3.40;;
12367;SDS011;6248;49.812;6.620;2023-06-24T10:49:49;3.47;;;2.97;;
12367;SDS011;6248;49.812;6.620;2023-06-24T10:52:17;3.13;;;2.90;;
12367;SDS011;6248;49.812;6.620;2023-06-24T10:54:47;3.33;;;3.03;;
12367;SDS011;6248;49.812;6.620;2023-06-24T10:57:14;3.97;;;3.40;;
12367;SDS011;6248;49.812;6.620;2023-06-24T10:59:42;4.00;;;3.30;;
12367;SDS011;6248;49.812;6.620;2023-06-24T11:02:12;3.65;;;3.28;;
12367;SDS011;6248;49.812;6.620;2023-06-24T11:04:43;3.42;;;2.88;;
12367;SDS011;6248;49.812;6.620;2023-06-24T11:07:10;4.45;;;2.90;;
12367;SDS011;6248;49.812;6.620;2023-06-24T11:09:37;3.13;;;2.92;;
12367;SDS011;6248;49.812;6.620;2023-06-24T11:12:07;2.90;;;2.60;;
12367;SDS011;6248;49.812;6.620;2023-06-24T11:14:35;4.57;;;2.92;;
12367;SDS011;6248;49.812;6.620;2023-06-24T11:17:02;3.83;;;3.28;;
12367;SDS011;6248;49.812;6.620;2023-06-24T11:19:30;3.63;;;3.15;;
12367;SDS011;6248;49.812;6.620;2023-06-24T11:22:00;3.40;;;3.10;;
12367;SDS011;6248;49.812;6.620;2023-06-24T11:24:28;4.20;;;2.90;;
12367;SDS011;6248;49.812;6.620;2023-06-24T11:26:55;3.33;;;2.72;;
12367;SDS011;6248;49.812;6.620;2023-06-24T11:29:24;3.33;;;3.00;;
12367;SDS011;6248;49.812;6.620;2023-06-24T11:31:51;2.85;;;2.60;;
12367;SDS011;6248;49.812;6.620;2023-06-24T11:34:18;2.90;;;2.70;;
12367;SDS011;6248;49.812;6.620;2023-06-24T11:36:45;3.17;;;2.78;;
12367;SDS011;6248;49.812;6.620;2023-06-24T11:41:57;3.33;;;3.13;;
12367;SDS011;6248;49.812;6.620;2023-06-24T11:44:26;2.90;;;2.70;;
12367;SDS011;6248;49.812;6.620;2023-06-24T11:46:53;3.20;;;2.90;;
12367;SDS011;6248;49.812;6.620;2023-06-24T11:49:29;3.00;;;2.80;;
12367;SDS011;6248;49.812;6.620;2023-06-24T11:51:57;3.95;;;2.70;;
12367;SDS011;6248;49.812;6.620;2023-06-24T11:54:24;3.00;;;2.70;;
12367;SDS011;6248;49.812;6.620;2023-06-24T11:56:51;3.35;;;2.65;;
12367;SDS011;6248;49.812;6.620;2023-06-24T11:59:19;2.97;;;2.67;;
12367;SDS011;6248;49.812;6.620;2023-06-24T12:01:53;3.78;;;2.60;;
12367;SDS011;6248;49.812;6.620;2023-06-24T12:04:20;3.05;;;2.55;;
12367;SDS011;6248;49.812;6.620;2023-06-24T12:06:48;3.08;;;2.88;;
12367;SDS011;6248;49.812;6.620;2023-06-24T12:09:15;2.47;;;2.28;;
12367;SDS011;6248;49.812;6.620;2023-06-24T12:11:42;2.90;;;2.70;;
12367;SDS011;6248;49.812;6.620;2023-06-24T12:14:10;2.83;;;2.63;;
12367;SDS011;6248;49.812;6.620;2023-06-24T12:16:38;3.13;;;2.92;;
12367;SDS011;6248;49.812;6.620;2023-06-24T12:19:07;3.15;;;2.95;;
12367;SDS011;6248;49.812;6.620;2023-06-24T12:21:34;3.63;;;2.80;;
12367;SDS011;6248;49.812;6.620;2023-06-24T12:24:01;2.92;;;2.72;;
12367;SDS011;6248;49.812;6.620;2023-06-24T12:26:29;2.80;;;2.60;;
12367;SDS011;6248;49.812;6.620;2023-06-24T12:28:56;3.00;;;2.80;;
12367;SDS011;6248;49.812;6.620;2023-06-24T12:31:23;3.40;;;3.10;;
12367;SDS011;6248;49.812;6.620;2023-06-24T12:33:50;2.90;;;2.65;;
12367;SDS011;6248;49.812;6.620;2023-06-24T12:36:19;3.17;;;2.80;;
12367;SDS011;6248;49.812;6.620;2023-06-24T12:38:46;3.13;;;2.60;;
12367;SDS011;6248;49.812;6.620;2023-06-24T12:41:14;3.25;;;2.95;;
12367;SDS011;6248;49.812;6.620;2023-06-24T12:43:45;3.25;;;2.92;;
12367;SDS011;6248;49.812;6.620;2023-06-24T12:46:14;2.92;;;2.72;;
12367;SDS011;6248;49.812;6.620;2023-06-24T12:48:42;3.95;;;2.75;;
12367;SDS011;6248;49.812;6.620;2023-06-24T12:51:13;3.03;;;2.72;;
12367;SDS011;6248;49.812;6.620;2023-06-24T12:53:44;2.80;;;2.60;;
12367;SDS011;6248;49.812;6.620;2023-06-24T12:56:14;3.15;;;2.88;;
12367;SDS011;6248;49.812;6.620;2023-06-24T12:58:42;2.88;;;2.67;;
12367;SDS011;6248;49.812;6.620;2023-06-24T13:01:10;4.57;;;2.92;;
12367;SDS011;6248;49.812;6.620;2023-06-24T13:03:39;3.17;;;2.88;;
12367;SDS011;6248;49.812;6.620;2023-06-24T13:06:08;3.80;;;3.08;;
12367;SDS011;6248;49.812;6.620;2023-06-24T13:08:39;3.10;;;2.80;;
12367;SDS011;6248;49.812;6.620;2023-06-24T13:11:11;2.60;;;2.40;;
12367;SDS011;6248;49.812;6.620;2023-06-24T13:13:41;3.25;;;2.70;;
12367;SDS011;6248;49.812;6.620;2023-06-24T13:16:16;3.33;;;2.42;;
12367;SDS011;6248;49.812;6.620;2023-06-24T13:18:45;2.67;;;2.58;;
12367;SDS011;6248;49.812;6.620;2023-06-24T13:21:25;2.72;;;2.53;;
12367;SDS011;6248;49.812;6.620;2023-06-24T13:23:53;2.72;;;2.53;;
12367;SDS011;6248;49.812;6.620;2023-06-24T13:26:24;2.92;;;2.53;;
12367;SDS011;6248;49.812;6.620;2023-06-24T13:28:52;2.90;;;2.70;;
12367;SDS011;6248;49.812;6.620;2023-06-24T13:31:23;2.88;;;2.55;;
12367;SDS011;6248;49.812;6.620;2023-06-24T13:33:51;2.78;;;2.58;;
12367;SDS011;6248;49.812;6.620;2023-06-24T13:36:29;3.05;;;2.85;;
12367;SDS011;6248;49.812;6.620;2023-06-24T13:39:00;2.95;;;2.70;;
12367;SDS011;6248;49.812;6.620;2023-06-24T13:41:33;3.88;;;2.90;;
12367;SDS011;6248;49.812;6.620;2023-06-24T13:44:01;3.47;;;2.60;;
12367;SDS011;6248;49.812;6.620;2023-06-24T13:46:38;5.78;;;2.75;;
12367;SDS011;6248;49.812;6.620;2023-06-24T13:49:05;2.78;;;2.58;;
12367;SDS011;6248;49.812;6.620;2023-06-24T13:51:51;3.00;;;2.70;;
12367;SDS011;6248;49.812;6.620;2023-06-24T13:54:24;3.15;;;2.72;;
12367;SDS011;6248;49.812;6.620;2023-06-24T13:56:57;3.00;;;2.70;;
12367;SDS011;6248;49.812;6.620;2023-06-24T13:59:28;3.00;;;2.80;;
12367;SDS011;6248;49.812;6.620;2023-06-24T14:01:56;4.22;;;2.60;;
12367;SDS011;6248;49.812;6.620;2023-06-24T14:04:23;3.17;;;2.97;;
12367;SDS011;6248;49.812;6.620;2023-06-24T14:06:51;3.28;;;2.97;;
12367;SDS011;6248;49.812;6.620;2023-06-24T14:09:20;3.42;;;2.83;;
12367;SDS011;6248;49.812;6.620;2023-06-24T14:11:47;2.90;;;2.70;;
12367;SDS011;6248;49.812;6.620;2023-06-24T14:14:18;2.80;;;2.60;;
12367;SDS011;6248;49.812;6.620;2023-06-24T14:16:48;3.38;;;2.90;;
12367;SDS011;6248;49.812;6.620;2023-06-24T14:19:15;3.03;;;2.85;;
12367;SDS011;6248;49.812;6.620;2023-06-24T14:21:44;3.00;;;2.80;;
12367;SDS011;6248;49.812;6.620;2023-06-24T14:24:13;3.00;;;2.80;;
12367;SDS011;6248;49.812;6.620;2023-06-24T14:26:45;3.00;;;2.75;;
12367;SDS011;6248;49.812;6.620;2023-06-24T14:29:14;4.00;;;2.90;;
12367;SDS011;6248;49.812;6.620;2023-06-24T14:31:48;3.10;;;2.90;;
12367;SDS011;6248;49.812;6.620;2023-06-24T14:34:16;3.78;;;2.78;;
12367;SDS011;6248;49.812;6.620;2023-06-24T14:36:44;3.45;;;3.00;;
12367;SDS011;6248;49.812;6.620;2023-06-24T14:39:19;3.20;;;2.90;;
12367;SDS011;6248;49.812;6.620;2023-06-24T14:41:48;3.10;;;2.90;;
12367;SDS011;6248;49.812;6.620;2023-06-24T14:44:19;3.13;;;2.92;;
12367;SDS011;6248;49.812;6.620;2023-06-24T14:46:51;3.53;;;3.15;;
12367;SDS011;6248;49.812;6.620;2023-06-24T14:49:19;3.17;;;2.97;;
12367;SDS011;6248;49.812;6.620;2023-06-24T14:51:52;3.00;;;2.80;;
12367;SDS011;6248;49.812;6.620;2023-06-24T14:54:22;3.22;;;3.03;;
12367;SDS011;6248;49.812;6.620;2023-06-24T14:56:49;3.00;;;2.70;;
12367;SDS011;6248;49.812;6.620;2023-06-24T14:59:20;3.00;;;2.80;;
12367;SDS011;6248;49.812;6.620;2023-06-24T15:01:52;3.35;;;2.90;;
12367;SDS011;6248;49.812;6.620;2023-06-24T15:04:30;2.97;;;2.78;;
12367;SDS011;6248;49.812;6.620;2023-06-24T15:06:59;2.95;;;2.75;;
12367;SDS011;6248;49.812;6.620;2023-06-24T15:09:28;2.92;;;2.72;;
12367;SDS011;6248;49.812;6.620;2023-06-24T15:11:56;3.20;;;2.95;;
12367;SDS011;6248;49.812;6.620;2023-06-24T15:14:25;3.42;;;3.13;;